Klamath Falls Airport Klamath Falls US
ICAO: KLMT
IATA: LMT
Category: Medium
Scheduled Services: Yes

Elevation: 4095 ft
TransAlt. 18000 ft.

Airport Communications:
KINGSLEY APP/DEP:123.675
ATIS:126.5
CTAF:118.2
GND:121.9
ANG BASE OPS:38.895
MC MINNVILLE RDO:122.6
KINGSLEY TWR:118.2
UNICOM:122.95

KLMT Zoom In..

Runways:

(A) RW 07 length 5258 ft width 100 ft
---- / hdg 73

(B) RW 14 length 10301 ft width 150 ft
---- / hdg 141

(C) RW 25 length 5258 ft width 100 ft
---- / hdg 253

(D) RW 32 length 10301 ft width 150 ft
ILS 109.50 / hdg 321

Location; KLMT
Day. 21 / Time. 05.53 Zulu
* Altimeter: 30.07
* Temperature: 20° c. 68°f.
* Wind from: 280° Speed 04 kn.
Dewpoint: 09° c.
Visibility: 9 Statute Miles.
Clouds: Clear (automated report).
Conditions: Smoke.

KLMT 210553Z AUTO 28004KT 9SM FU CLR 20/09 A3007 RMK AO2 SLP135 T02000089 10333 20178 51014


Wind From 280°
Speed 04 kn.

 
 
jpsmedia.com for Web Design worldairports.se 2018   terms of use